createdAt,value
2018-09-03T00:06:55.621Z,23.65
2018-09-03T00:09:42.880Z,23.74
2018-09-03T00:12:19.458Z,23.71
2018-09-03T00:15:05.933Z,23.98
2018-09-03T00:20:43.700Z,24.14
2018-09-03T00:23:22.691Z,24.32
2018-09-03T00:26:04.960Z,24.48
2018-09-03T00:28:40.802Z,24.26
2018-09-03T00:31:22.922Z,24.39
2018-09-03T00:34:09.687Z,24.53
2018-09-03T00:37:51.654Z,24.50
2018-09-03T00:40:32.653Z,24.29
2018-09-03T00:43:16.122Z,24.80
2018-09-03T00:45:58.110Z,24.57
2018-09-03T00:48:32.998Z,24.70
2018-09-03T00:51:11.368Z,24.45
2018-09-03T00:53:54.035Z,24.79
2018-09-03T00:56:37.352Z,24.89
2018-09-03T00:59:14.814Z,24.85
2018-09-03T01:01:50.599Z,24.73
2018-09-03T01:04:24.915Z,24.60
2018-09-03T01:07:00.315Z,24.49
2018-09-03T01:09:37.699Z,24.80
2018-09-03T01:12:15.954Z,24.86
2018-09-03T01:14:51.076Z,24.71
2018-09-03T01:17:25.110Z,24.42
2018-09-03T01:20:14.836Z,25.15
2018-09-03T01:22:49.595Z,24.92
2018-09-03T01:25:22.599Z,24.29
2018-09-03T01:27:59.029Z,23.99
2018-09-03T01:30:32.178Z,24.22
2018-09-03T01:33:09.501Z,24.69
2018-09-03T01:36:03.484Z,24.34
2018-09-03T01:38:40.115Z,24.07
2018-09-03T01:41:19.717Z,23.94
2018-09-03T01:44:06.177Z,24.06
2018-09-03T01:46:50.536Z,24.08
2018-09-03T01:49:26.418Z,23.69
2018-09-03T01:52:08.282Z,23.61
2018-09-03T01:54:46.301Z,24.32
2018-09-03T01:57:34.760Z,24.28
2018-09-03T02:00:17.487Z,24.42
2018-09-03T02:02:52.373Z,24.98
2018-09-03T02:05:26.225Z,25.47
2018-09-03T02:08:01.900Z,25.91
2018-09-03T02:10:41.905Z,25.76
2018-09-03T02:13:20.786Z,25.53
2018-09-03T02:16:08.006Z,25.75
2018-09-03T02:21:44.809Z,24.89
2018-09-03T02:24:22.124Z,25.45
2018-09-03T02:26:55.913Z,25.06
2018-09-03T02:29:29.201Z,24.83
2018-09-03T02:32:11.558Z,24.88
2018-09-03T02:34:55.383Z,24.31
2018-09-03T02:37:30.043Z,23.42
2018-09-03T02:40:13.409Z,23.16
2018-09-03T02:42:55.657Z,23.10
2018-09-03T02:45:33.047Z,22.61
2018-09-03T02:48:10.585Z,22.11
2018-09-03T02:50:42.352Z,21.94
2018-09-03T02:53:20.849Z,21.99
2018-09-03T02:56:08.592Z,21.67
2018-09-03T02:58:44.850Z,21.60
2018-09-03T03:01:19.179Z,21.61
2018-09-03T03:06:43.421Z,21.61
2018-09-03T03:09:16.055Z,21.61
2018-09-03T03:11:49.879Z,22.21
2018-09-03T03:14:42.193Z,22.71
2018-09-03T03:17:33.452Z,22.23
2018-09-03T03:20:19.548Z,22.14
2018-09-03T03:22:54.273Z,22.19
2018-09-03T03:28:55.645Z,22.05
2018-09-03T03:31:24.492Z,21.89
2018-09-03T03:33:53.377Z,21.84
2018-09-03T03:36:22.216Z,21.63
2018-09-03T03:38:51.034Z,21.77
2018-09-03T03:41:19.849Z,21.69
2018-09-03T03:43:48.693Z,21.43
2018-09-03T03:46:17.506Z,21.33
2018-09-03T03:48:46.416Z,21.57
2018-09-03T03:51:15.415Z,21.38
2018-09-03T03:53:45.684Z,21.10
2018-09-03T03:56:14.490Z,21.35
2018-09-03T03:58:43.418Z,21.55
2018-09-03T04:01:12.253Z,21.14
2018-09-03T04:03:41.062Z,20.97
2018-09-03T04:06:10.052Z,21.41
2018-09-03T04:08:40.118Z,21.71
2018-09-03T04:11:08.968Z,21.58
2018-09-03T04:13:37.784Z,21.72
2018-09-03T04:16:06.649Z,21.59
2018-09-03T04:18:35.458Z,21.87
2018-09-03T04:21:04.288Z,21.97
2018-09-03T04:23:33.177Z,22.24
2018-09-03T04:26:02.165Z,22.36
2018-09-03T04:28:31.027Z,22.42
2018-09-03T04:31:01.243Z,22.55
2018-09-03T04:33:30.126Z,22.29
2018-09-03T04:35:59.024Z,22.25
2018-09-03T04:38:27.908Z,22.64
2018-09-03T04:40:56.818Z,22.99
2018-09-03T04:43:25.719Z,23.44
2018-09-03T04:45:54.823Z,23.35
2018-09-03T04:48:23.689Z,23.59
2018-09-03T04:50:52.571Z,23.84
2018-09-03T04:53:21.477Z,23.94
2018-09-03T04:55:50.370Z,23.61
2018-09-03T04:58:19.358Z,23.33
2018-09-03T05:00:48.227Z,23.78
2018-09-03T05:03:17.036Z,23.22
2018-09-03T05:05:45.891Z,23.33
2018-09-03T05:08:15.912Z,23.29
2018-09-03T05:10:46.076Z,23.77
2018-09-03T05:13:14.882Z,23.97
2018-09-03T05:15:43.714Z,25.34
2018-09-03T05:18:12.607Z,25.18
2018-09-03T05:20:41.542Z,24.73
2018-09-03T05:23:10.496Z,24.68
2018-09-03T05:25:39.366Z,24.83
2018-09-03T05:28:08.164Z,24.89
2018-09-03T05:30:36.978Z,24.65
2018-09-03T05:33:06.087Z,24.50
2018-09-03T05:35:34.924Z,24.68
2018-09-03T05:38:03.725Z,25.10
2018-09-03T05:40:32.620Z,25.27
2018-09-03T05:43:01.583Z,25.63
2018-09-03T05:45:30.498Z,25.84
2018-09-03T05:47:59.305Z,26.18
2018-09-03T05:50:28.309Z,26.35
2018-09-03T05:52:56.982Z,25.91
2018-09-03T05:55:25.903Z,26.13
2018-09-03T05:57:54.741Z,26.37
2018-09-03T06:00:23.593Z,26.26
2018-09-03T06:02:52.452Z,26.39
2018-09-03T06:05:21.351Z,26.33
2018-09-03T06:07:51.678Z,26.39
2018-09-03T06:10:20.546Z,26.91
2018-09-03T06:12:49.394Z,27.14
2018-09-03T06:15:19.798Z,27.16
2018-09-03T06:17:48.770Z,27.32
2018-09-03T06:20:18.800Z,27.24
2018-09-03T06:22:47.629Z,27.43
2018-09-03T06:25:16.413Z,27.65
2018-09-03T06:27:45.274Z,27.48
2018-09-03T06:30:14.103Z,27.49
2018-09-03T06:32:42.943Z,27.64
2018-09-03T06:35:13.165Z,27.60
2018-09-03T06:37:41.967Z,27.38
2018-09-03T06:40:10.814Z,27.47
2018-09-03T06:42:39.749Z,27.42
2018-09-03T06:45:08.831Z,27.73
2018-09-03T06:47:37.831Z,27.70
2018-09-03T06:50:09.285Z,27.92
2018-09-03T06:52:39.583Z,28.11
2018-09-03T06:55:08.478Z,28.40
2018-09-03T06:57:37.298Z,28.60
2018-09-03T07:00:06.988Z,28.60
2018-09-03T07:02:35.844Z,28.60
2018-09-03T07:05:04.803Z,28.84
2018-09-03T07:07:33.764Z,28.99
2018-09-03T07:10:02.588Z,28.67
2018-09-03T07:12:31.552Z,28.96
2018-09-03T07:15:01.819Z,28.97
2018-09-03T07:17:30.664Z,29.03
2018-09-03T07:19:59.676Z,28.57
2018-09-03T07:22:30.961Z,28.68
2018-09-03T07:24:59.828Z,28.77
2018-09-03T07:27:31.401Z,29.23
2018-09-03T07:30:01.595Z,29.50
2018-09-03T07:32:30.589Z,29.54
2018-09-03T07:35:01.083Z,29.12
2018-09-03T07:37:29.935Z,29.44
2018-09-03T07:39:58.728Z,29.48
2018-09-03T07:42:27.613Z,29.67
2018-09-03T07:44:56.417Z,29.83
2018-09-03T07:47:25.223Z,29.77
2018-09-03T07:49:54.080Z,29.47
2018-09-03T07:52:22.942Z,29.59
2018-09-03T07:54:51.938Z,29.79
2018-09-03T07:57:20.797Z,29.96
2018-09-03T07:59:49.633Z,29.88
2018-09-03T08:02:18.455Z,30.07
2018-09-03T08:04:48.666Z,29.96
2018-09-03T08:07:17.502Z,29.89
2018-09-03T08:09:46.325Z,29.81
2018-09-03T08:12:16.660Z,29.78
2018-09-03T08:14:45.482Z,29.74
2018-09-03T08:17:14.347Z,29.42
2018-09-03T08:19:43.226Z,29.36
2018-09-03T08:22:12.143Z,29.52
2018-09-03T08:24:40.956Z,29.41
2018-09-03T08:27:09.868Z,29.65
2018-09-03T08:29:39.938Z,29.69
2018-09-03T08:32:08.774Z,29.25
2018-09-03T08:34:38.993Z,29.24
2018-09-03T08:37:07.867Z,29.45
2018-09-03T08:39:36.689Z,29.41
2018-09-03T08:42:06.981Z,29.54
2018-09-03T08:44:35.813Z,29.69
2018-09-03T08:47:04.680Z,29.78
2018-09-03T08:49:33.604Z,29.88
2018-09-03T08:52:02.517Z,30.18
2018-09-03T08:54:31.396Z,30.06
2018-09-03T08:57:00.265Z,29.68
2018-09-03T08:59:29.186Z,29.70
2018-09-03T09:01:58.061Z,30.03
2018-09-03T09:04:26.885Z,30.01
2018-09-03T09:06:55.748Z,30.34
2018-09-03T09:09:24.622Z,30.65
2018-09-03T09:11:53.450Z,30.49
2018-09-03T09:14:22.300Z,30.53
2018-09-03T09:16:51.231Z,30.45
2018-09-03T09:19:20.147Z,30.78
2018-09-03T09:21:48.975Z,30.65
2018-09-03T09:24:17.855Z,30.57
2018-09-03T09:26:46.746Z,30.42
2018-09-03T09:29:15.580Z,30.11
2018-09-03T09:31:44.449Z,30.33
2018-09-03T09:34:13.334Z,30.27
2018-09-03T09:36:42.241Z,30.28
2018-09-03T09:39:11.313Z,30.19
2018-09-03T09:41:40.172Z,30.27
2018-09-03T09:44:10.075Z,30.35
2018-09-03T09:46:38.947Z,30.14
2018-09-03T09:49:07.784Z,30.32
2018-09-03T09:51:36.642Z,30.12
2018-09-03T09:54:05.563Z,29.96
2018-09-03T09:56:34.397Z,30.04
2018-09-03T09:59:03.313Z,30.13
2018-09-03T10:01:37.016Z,29.80
2018-09-03T10:04:06.065Z,29.89
2018-09-03T10:06:34.889Z,29.98
2018-09-03T10:09:05.717Z,29.96
2018-09-03T10:11:34.571Z,29.82
2018-09-03T10:14:03.417Z,29.51
2018-09-03T10:16:32.434Z,29.58
2018-09-03T10:19:01.309Z,29.66
2018-09-03T10:21:30.177Z,29.71
2018-09-03T10:24:00.360Z,29.80
2018-09-03T10:26:29.270Z,29.67
2018-09-03T10:28:58.161Z,29.75
2018-09-03T10:31:27.065Z,29.36
2018-09-03T10:33:55.886Z,29.59
2018-09-03T10:36:24.774Z,29.82
2018-09-03T10:38:53.633Z,29.58
2018-09-03T10:41:23.878Z,29.82
2018-09-03T10:43:52.697Z,29.69
2018-09-03T10:46:21.605Z,29.36
2018-09-03T10:48:51.781Z,28.98
2018-09-03T10:51:20.633Z,28.90
2018-09-03T10:53:49.510Z,28.70
2018-09-03T10:56:18.387Z,28.74
2018-09-03T10:58:47.440Z,28.61
2018-09-03T11:01:16.294Z,28.69
2018-09-03T11:03:45.192Z,28.85
2018-09-03T11:06:15.464Z,28.77
2018-09-03T11:08:45.584Z,28.76
2018-09-03T11:11:14.425Z,28.97
2018-09-03T11:13:44.584Z,28.94
2018-09-03T11:16:13.473Z,28.41
2018-09-03T11:18:42.336Z,28.62
2018-09-03T11:21:11.256Z,28.80
2018-09-03T11:23:40.121Z,28.85
2018-09-03T11:26:08.977Z,28.82
2018-09-03T11:28:37.948Z,28.62
2018-09-03T11:31:06.945Z,28.49
2018-09-03T11:33:35.780Z,28.68
2018-09-03T11:36:04.670Z,28.60
2018-09-03T11:38:33.533Z,28.61
2018-09-03T11:41:02.374Z,28.76
2018-09-03T11:43:31.262Z,28.56
2018-09-03T11:46:00.093Z,28.62
2018-09-03T11:48:28.980Z,28.61
2018-09-03T11:50:59.151Z,28.74
2018-09-03T11:53:28.067Z,28.82
2018-09-03T11:55:56.933Z,28.86
2018-09-03T11:58:27.123Z,28.81
2018-09-03T12:00:58.912Z,29.00
2018-09-03T12:03:27.780Z,29.13
2018-09-03T12:05:56.725Z,29.14
2018-09-03T12:08:25.644Z,29.06
2018-09-03T12:10:54.478Z,29.22
2018-09-03T12:13:23.322Z,29.48
2018-09-03T12:16:25.719Z,28.90
2018-09-03T12:18:58.233Z,28.69
2018-09-03T12:21:28.451Z,28.93
2018-09-03T12:23:58.518Z,29.01
2018-09-03T12:26:27.385Z,28.94
2018-09-03T12:28:56.501Z,29.13
2018-09-03T12:31:25.445Z,29.55
2018-09-03T12:33:54.235Z,29.45
2018-09-03T12:36:23.174Z,29.21
2018-09-03T12:38:52.091Z,29.25
2018-09-03T12:41:21.032Z,29.00
2018-09-03T12:43:49.958Z,28.80
2018-09-03T12:46:18.923Z,29.11
2018-09-03T12:48:47.743Z,29.57
2018-09-03T12:51:16.595Z,30.13
2018-09-03T12:53:45.506Z,31.13
2018-09-03T12:56:14.397Z,31.10
2018-09-03T12:58:43.264Z,31.79
2018-09-03T13:01:12.173Z,31.71
2018-09-03T13:03:40.988Z,32.72
2018-09-03T13:06:09.810Z,31.52
2018-09-03T13:08:38.688Z,32.54
2018-09-03T13:11:07.578Z,32.81
2018-09-03T13:13:36.494Z,32.48
2018-09-03T13:16:05.597Z,32.02
2018-09-03T13:18:35.736Z,32.41
2018-09-03T13:21:04.567Z,32.73
2018-09-03T13:23:33.436Z,32.27
2018-09-03T13:26:02.330Z,32.22
2018-09-03T13:28:31.163Z,31.62
2018-09-03T13:31:06.641Z,31.63
2018-09-03T13:33:35.484Z,32.15
2018-09-03T13:36:04.374Z,32.33
2018-09-03T13:38:33.370Z,32.84
2018-09-03T13:41:02.467Z,32.18
2018-09-03T13:43:31.369Z,31.22
2018-09-03T13:46:00.296Z,31.58
2018-09-03T13:48:29.168Z,31.38
2018-09-03T13:50:58.072Z,31.43
2018-09-03T13:53:26.921Z,32.35
2018-09-03T13:55:55.794Z,31.77
2018-09-03T13:58:24.645Z,31.75
2018-09-03T14:00:53.480Z,30.96
2018-09-03T14:03:24.168Z,31.50
2018-09-03T14:05:53.133Z,30.97
2018-09-03T14:08:22.012Z,30.95
2018-09-03T14:10:50.869Z,30.85
2018-09-03T14:13:19.673Z,31.39
2018-09-03T14:15:49.988Z,31.56
2018-09-03T14:18:18.825Z,30.96
2018-09-03T14:20:47.786Z,31.13
2018-09-03T14:23:18.000Z,31.15
2018-09-03T14:25:46.836Z,30.88
2018-09-03T14:28:15.684Z,31.48
2018-09-03T14:30:44.557Z,30.84
2018-09-03T14:33:13.384Z,30.87
2018-09-03T14:35:42.302Z,31.61
2018-09-03T14:38:11.190Z,31.03
2018-09-03T14:40:40.025Z,30.94
2018-09-03T14:43:10.299Z,30.69
2018-09-03T14:45:39.034Z,30.80
2018-09-03T14:48:07.923Z,30.83
2018-09-03T14:50:36.785Z,31.28
2018-09-03T14:53:05.597Z,31.06
2018-09-03T14:55:34.466Z,31.98
2018-09-03T14:58:03.319Z,31.52
2018-09-03T15:00:32.181Z,31.07
2018-09-03T15:03:00.994Z,30.94
2018-09-03T15:05:29.890Z,31.12
2018-09-03T15:07:58.721Z,31.65
2018-09-03T15:10:27.534Z,31.55
2018-09-03T15:12:56.504Z,30.73
2018-09-03T15:15:25.352Z,30.88
2018-09-03T15:17:54.205Z,30.65
2018-09-03T15:20:23.154Z,30.76
2018-09-03T15:22:51.962Z,30.97
2018-09-03T15:25:20.801Z,30.62
2018-09-03T15:27:50.937Z,30.79
2018-09-03T15:30:19.929Z,30.37
2018-09-03T15:32:48.769Z,30.09
2018-09-03T15:35:17.613Z,30.34
2018-09-03T15:37:46.491Z,30.38
2018-09-03T15:40:15.320Z,30.35
2018-09-03T15:42:44.186Z,30.31
2018-09-03T15:45:13.142Z,30.09
2018-09-03T15:47:42.065Z,30.33
2018-09-03T15:50:10.900Z,29.94
2018-09-03T15:52:41.024Z,29.67
2018-09-03T15:55:09.969Z,29.16
2018-09-03T15:57:38.859Z,28.67
2018-09-03T16:00:09.165Z,27.97
2018-09-03T16:02:39.563Z,27.53
2018-09-03T16:05:08.430Z,27.36
2018-09-03T16:07:37.281Z,27.23
2018-09-03T16:10:06.560Z,27.16
2018-09-03T16:12:35.428Z,27.07
2018-09-03T16:15:04.313Z,26.83
2018-09-03T16:17:34.535Z,26.72
2018-09-03T16:20:03.513Z,26.64
2018-09-03T16:22:32.441Z,26.59
2018-09-03T16:25:01.327Z,26.63
2018-09-03T16:27:30.499Z,26.58
2018-09-03T16:29:59.256Z,26.50
2018-09-03T16:32:28.176Z,26.45
2018-09-03T16:34:58.322Z,26.38
2018-09-03T16:37:27.152Z,26.30
2018-09-03T16:39:55.992Z,26.22
2018-09-03T16:42:26.308Z,26.18
2018-09-03T16:44:55.165Z,26.19
2018-09-03T16:47:25.236Z,26.13
2018-09-03T16:49:54.057Z,26.15
2018-09-03T16:52:22.965Z,26.11
2018-09-03T16:54:52.985Z,26.03
2018-09-03T16:57:21.850Z,25.98
2018-09-03T16:59:50.685Z,26.05
2018-09-03T17:02:20.949Z,26.07
2018-09-03T17:04:49.827Z,25.88
2018-09-03T17:07:18.807Z,25.95
2018-09-03T17:09:47.792Z,26.00
2018-09-03T17:12:16.642Z,25.99
2018-09-03T17:14:45.637Z,26.03
2018-09-03T17:17:14.505Z,25.92
2018-09-03T17:19:43.408Z,25.89
2018-09-03T17:22:12.385Z,25.96
2018-09-03T17:24:41.436Z,25.95
2018-09-03T17:27:10.315Z,25.96
2018-09-03T17:29:39.279Z,25.92
2018-09-03T17:32:08.205Z,25.97
2018-09-03T17:34:37.106Z,25.94
2018-09-03T17:37:06.312Z,25.97
2018-09-03T17:39:35.225Z,26.00
2018-09-03T17:42:04.275Z,26.05
2018-09-03T17:44:33.161Z,26.02
2018-09-03T17:47:02.076Z,26.13
2018-09-03T17:49:31.010Z,25.96
2018-09-03T17:52:00.190Z,26.01
2018-09-03T17:54:30.340Z,25.95
2018-09-03T17:56:59.167Z,25.82
2018-09-03T17:59:28.010Z,25.79
2018-09-03T18:01:56.897Z,25.85
2018-09-03T18:04:25.758Z,25.72
2018-09-03T18:06:54.618Z,25.77
2018-09-03T18:09:23.514Z,25.78
2018-09-03T18:11:52.400Z,25.73
2018-09-03T18:14:21.230Z,25.67
2018-09-03T18:16:51.408Z,25.65
2018-09-03T18:19:20.302Z,25.63
2018-09-03T18:21:49.275Z,25.23
2018-09-03T18:24:18.157Z,25.25
2018-09-03T18:26:46.969Z,25.25
2018-09-03T18:29:15.829Z,24.99
2018-09-03T18:31:45.989Z,24.76
2018-09-03T18:34:14.814Z,24.68
2018-09-03T18:36:43.881Z,24.61
2018-09-03T18:39:13.959Z,24.46
2018-09-03T18:41:42.856Z,24.45
2018-09-03T18:44:11.653Z,24.41
2018-09-03T18:46:41.829Z,24.88
2018-09-03T18:49:10.756Z,24.83
2018-09-03T18:51:39.629Z,24.77
2018-09-03T18:54:09.696Z,24.51
2018-09-03T18:56:38.522Z,24.47
2018-09-03T18:59:07.445Z,24.40
2018-09-03T19:01:36.309Z,24.34
2018-09-03T19:04:05.145Z,24.23
2018-09-03T19:06:34.007Z,24.11
2018-09-03T19:09:04.286Z,24.12
2018-09-03T19:11:33.141Z,24.16
2018-09-03T19:14:01.979Z,24.14
2018-09-03T19:18:59.898Z,24.09
2018-09-03T19:21:28.767Z,24.29
2018-09-03T19:23:57.629Z,24.28
2018-09-03T19:26:26.457Z,24.33
2018-09-03T19:28:55.466Z,24.43
2018-09-03T19:31:24.296Z,24.39
2018-09-03T19:33:54.436Z,24.32
2018-09-03T19:36:23.250Z,24.22
2018-09-03T19:38:52.132Z,24.07
2018-09-03T19:41:21.038Z,24.11
2018-09-03T19:43:49.881Z,24.09
2018-09-03T19:46:18.753Z,24.31
2018-09-03T19:48:47.660Z,24.24
2018-09-03T19:51:16.505Z,24.03
2018-09-03T19:53:45.321Z,23.92
2018-09-03T19:56:14.241Z,23.95
2018-09-03T19:58:44.385Z,24.00
2018-09-03T20:01:13.244Z,24.08
2018-09-03T20:03:42.061Z,24.01
2018-09-03T20:06:10.955Z,24.14
2018-09-03T20:08:40.183Z,24.28
2018-09-03T20:11:09.091Z,24.29
2018-09-03T20:13:39.612Z,24.05
2018-09-03T20:16:08.548Z,24.01
2018-09-03T20:18:37.389Z,24.15
2018-09-03T20:21:06.425Z,24.25
2018-09-03T20:23:35.466Z,23.98
2018-09-03T20:26:04.282Z,23.67
2018-09-03T20:28:33.168Z,23.65
2018-09-03T20:31:02.120Z,23.53
2018-09-03T20:33:31.005Z,23.49
2018-09-03T20:35:59.842Z,23.60
2018-09-03T20:38:28.681Z,23.46
2018-09-03T20:40:58.809Z,23.29
2018-09-03T20:43:27.661Z,23.23
2018-09-03T20:45:56.500Z,23.21
2018-09-03T20:48:25.464Z,23.20
2018-09-03T20:50:54.313Z,23.10
2018-09-03T20:53:23.173Z,23.04
2018-09-03T20:55:52.128Z,23.15
2018-09-03T20:58:20.946Z,23.12
2018-09-03T21:00:49.893Z,23.16
2018-09-03T21:03:18.705Z,23.29
2018-09-03T21:05:47.593Z,23.46
2018-09-03T21:08:16.498Z,23.54
2018-09-03T21:10:45.325Z,23.45
2018-09-03T21:13:14.204Z,23.28
2018-09-03T21:15:43.049Z,23.29
2018-09-03T21:18:11.891Z,23.31
2018-09-03T21:20:40.858Z,23.34
2018-09-03T21:23:09.729Z,23.38
2018-09-03T21:25:38.505Z,23.47
2018-09-03T21:28:07.427Z,23.33
2018-09-03T21:30:36.264Z,23.41
2018-09-03T21:33:05.153Z,23.24
2018-09-03T21:35:34.025Z,23.17
2018-09-03T21:38:02.973Z,23.21
2018-09-03T21:40:31.825Z,23.08
2018-09-03T21:43:00.671Z,23.21
2018-09-03T21:45:29.485Z,23.40
2018-09-03T21:47:58.298Z,23.56
2018-09-03T21:50:27.161Z,23.58
2018-09-03T21:52:55.967Z,23.50
2018-09-03T21:55:24.781Z,23.58
2018-09-03T21:57:53.625Z,23.55
2018-09-03T22:00:22.498Z,23.76
2018-09-03T22:02:51.316Z,24.15
2018-09-03T22:05:20.156Z,24.26
2018-09-03T22:07:48.953Z,24.51
2018-09-03T22:10:17.753Z,24.50
2018-09-03T22:12:46.613Z,24.40
2018-09-03T22:15:15.429Z,24.13
2018-09-03T22:17:45.671Z,23.87
2018-09-03T22:20:14.534Z,23.41
2018-09-03T22:22:43.381Z,23.21
2018-09-03T22:25:12.351Z,23.03
2018-09-03T22:27:41.226Z,23.01
2018-09-03T22:30:10.138Z,22.89
2018-09-03T22:32:38.969Z,22.72
2018-09-03T22:35:07.894Z,22.55
2018-09-03T22:37:36.712Z,22.56
2018-09-03T22:40:05.727Z,22.51
2018-09-03T22:42:34.606Z,22.58
2018-09-03T22:45:03.515Z,22.56
2018-09-03T22:47:32.336Z,22.59
2018-09-03T22:50:01.171Z,22.97
2018-09-03T22:52:30.053Z,22.89
2018-09-03T22:54:58.853Z,22.93
2018-09-03T22:57:27.784Z,23.15
2018-09-03T22:59:56.594Z,23.09
2018-09-03T23:02:36.020Z,23.04
2018-09-03T23:05:05.302Z,22.94
2018-09-03T23:07:34.178Z,23.08
2018-09-03T23:10:03.003Z,23.29
2018-09-03T23:12:31.961Z,23.34
2018-09-03T23:15:00.860Z,23.72
2018-09-03T23:17:29.758Z,23.53
2018-09-03T23:19:58.610Z,23.65
2018-09-03T23:22:27.477Z,23.68
2018-09-03T23:24:56.609Z,23.63
2018-09-03T23:27:25.923Z,24.09
2018-09-03T23:29:54.823Z,24.22
2018-09-03T23:32:23.763Z,24.53
2018-09-03T23:34:52.708Z,24.77
2018-09-03T23:37:21.585Z,24.99
2018-09-03T23:39:50.434Z,25.48
2018-09-03T23:42:19.370Z,25.66
2018-09-03T23:44:48.273Z,25.48
2018-09-03T23:47:17.199Z,25.41
2018-09-03T23:49:46.191Z,25.51
2018-09-03T23:52:15.163Z,25.08
2018-09-03T23:54:44.056Z,25.31
2018-09-03T23:57:13.095Z,24.93
2018-09-03T23:59:42.049Z,24.57
